Time;durP1;ratioP1;P1;durP2;ratioP2;P2;SDS_P1;SDS_P2;PMS_P1;PMS_P2;Temp;Humidity;BMP_temperature;BMP_pressure;BME280_temperature;BME280_humidity;BME280_pressure;Samples;Min_cycle;Max_cycle;Signal;HPM_P1;HPM_P2
2022/09/29 00:02:39;;;;;;;8.00;4.60;;;;;;;12.13;100.00;98949.28;5588923;31;34519;-69
2022/09/29 00:05:49;;;;;;;5.75;4.53;;;;;;;12.12;100.00;98941.50;5588973;31;33975;-69
2022/09/29 00:08:56;;;;;;;7.87;4.68;;;;;;;12.16;100.00;98942.69;5588830;31;34041;-69
2022/09/29 00:12:05;;;;;;;9.30;4.85;;;;;;;12.15;100.00;98939.22;5588649;31;34156;-69
2022/09/29 00:15:12;;;;;;;7.82;4.87;;;;;;;12.16;100.00;98932.06;5588714;31;34680;-69
2022/09/29 00:18:19;;;;;;;6.85;4.70;;;;;;;12.13;100.00;98933.31;5588709;31;34015;-69
2022/09/29 00:21:29;;;;;;;6.07;4.78;;;;;;;12.16;100.00;98934.72;5588609;31;34720;-69
2022/09/29 00:24:40;;;;;;;7.85;4.90;;;;;;;12.14;100.00;98942.94;5588633;31;33871;-69
2022/09/29 00:27:48;;;;;;;6.60;5.12;;;;;;;12.17;100.00;98939.84;5588589;31;34333;-69
2022/09/29 00:30:56;;;;;;;7.32;4.82;;;;;;;12.27;100.00;98933.25;5588851;31;34713;-69
2022/09/29 00:34:05;;;;;;;8.48;5.47;;;;;;;12.35;100.00;98927.66;5588726;31;34570;-69
2022/09/29 00:37:14;;;;;;;6.75;4.82;;;;;;;12.34;100.00;98936.69;5588328;31;34283;-69
2022/09/29 00:40:20;;;;;;;7.12;4.97;;;;;;;12.24;100.00;98931.00;5588135;31;34031;-69
2022/09/29 00:43:50;;;;;;;7.35;5.10;;;;;;;12.12;100.00;98937.00;5587988;31;34785;-69
2022/09/29 00:47:04;;;;;;;7.12;5.07;;;;;;;12.02;100.00;98927.84;5574301;31;32414;-69
2022/09/29 00:50:21;;;;;;;7.40;5.40;;;;;;;11.92;100.00;98928.31;5587904;31;33912;-69
2022/09/29 00:53:28;;;;;;;7.62;5.28;;;;;;;11.85;100.00;98922.22;5574675;31;34589;-69
2022/09/29 00:56:40;;;;;;;8.73;5.55;;;;;;;11.82;100.00;98927.13;5588208;31;34061;-69
2022/09/29 00:59:54;;;;;;;11.38;5.18;;;;;;;11.82;100.00;98924.47;5587894;31;34776;-69
2022/09/29 01:03:07;;;;;;;9.63;5.32;;;;;;;11.83;100.00;98916.28;5588274;31;34024;-69
2022/09/29 01:06:19;;;;;;;8.45;5.20;;;;;;;11.73;100.00;98930.03;5590638;31;35178;-69
2022/09/29 01:09:30;;;;;;;8.90;5.35;;;;;;;11.72;100.00;98927.53;5576623;31;32969;-69
2022/09/29 01:12:38;;;;;;;8.85;5.93;;;;;;;11.67;100.00;98938.78;5590702;31;34666;-69
2022/09/29 01:15:47;;;;;;;10.50;6.50;;;;;;;11.67;100.00;98935.31;5590526;31;34199;-69
2022/09/29 01:18:55;;;;;;;10.95;6.70;;;;;;;11.72;100.00;98922.22;5590733;31;33885;-69
2022/09/29 01:22:14;;;;;;;10.27;6.87;;;;;;;11.75;100.00;98916.53;5590628;31;33872;-69
2022/09/29 01:25:41;;;;;;;11.45;6.70;;;;;;;11.80;100.00;98910.59;5590715;31;34416;-69
2022/09/29 01:29:03;;;;;;;13.05;6.28;;;;;;;11.82;100.00;98919.97;5590451;31;34167;-69
2022/09/29 01:32:33;;;;;;;10.18;6.97;;;;;;;11.82;100.00;98916.50;5590709;31;33909;-69
2022/09/29 01:35:51;;;;;;;9.32;6.10;;;;;;;11.83;100.00;98913.63;5576563;31;33097;-69
2022/09/29 01:39:07;;;;;;;11.00;6.50;;;;;;;11.85;100.00;98902.81;5590380;31;34004;-69
2022/09/29 01:42:35;;;;;;;9.27;6.87;;;;;;;11.80;100.00;98898.13;5577225;31;34303;-69
2022/09/29 01:45:48;;;;;;;9.95;6.80;;;;;;;11.77;100.00;98899.34;5590366;31;34610;-69
2022/09/29 01:48:57;;;;;;;9.88;7.03;;;;;;;11.73;100.00;98902.63;5590135;31;34959;-69
2022/09/29 01:52:13;;;;;;;9.73;7.07;;;;;;;11.71;100.00;98902.03;5590698;31;34643;-69
2022/09/29 01:55:23;;;;;;;13.60;7.62;;;;;;;11.66;100.00;98899.19;5590230;31;34086;-69
2022/09/29 01:58:42;;;;;;;8.13;6.93;;;;;;;11.60;100.00;98898.19;5576920;31;34037;-70
2022/09/29 02:01:58;;;;;;;9.73;7.00;;;;;;;11.60;100.00;98889.38;5590271;31;34013;-69
2022/09/29 02:05:28;;;;;;;10.50;7.05;;;;;;;11.51;100.00;98878.19;5577083;31;34574;-69
2022/09/29 02:08:51;;;;;;;9.27;6.95;;;;;;;11.49;100.00;98885.53;5590064;31;34047;-69
2022/09/29 02:12:03;;;;;;;12.80;7.60;;;;;;;11.47;100.00;98889.44;5576866;31;33833;-69
2022/09/29 02:15:13;;;;;;;14.15;8.45;;;;;;;11.49;100.00;98890.03;5588873;31;35232;-69
2022/09/29 02:18:33;;;;;;;11.57;7.87;;;;;;;11.66;100.00;98896.53;5590204;31;34227;-69
2022/09/29 02:21:43;;;;;;;10.07;7.12;;;;;;;11.76;100.00;98896.91;5589923;31;34151;-69
2022/09/29 02:24:54;;;;;;;9.90;7.50;;;;;;;11.79;100.00;98885.03;5590039;31;34116;-69
2022/09/29 02:28:00;;;;;;;10.43;7.35;;;;;;;11.76;100.00;98884.41;5589980;31;34547;-69
2022/09/29 02:31:08;;;;;;;10.27;7.32;;;;;;;11.74;100.00;98883.03;5589873;31;34005;-69
2022/09/29 02:34:18;;;;;;;11.05;7.72;;;;;;;11.74;100.00;98888.34;5590030;31;34619;-69
2022/09/29 02:37:35;;;;;;;12.70;7.35;;;;;;;11.74;100.00;98888.34;5589910;31;33974;-69
2022/09/29 02:40:58;;;;;;;12.63;8.15;;;;;;;11.73;100.00;98882.19;5589836;31;33936;-69
2022/09/29 02:44:54;;;;;;;12.25;8.10;;;;;;;11.80;100.00;98886.69;5589892;31;34316;-69
2022/09/29 02:48:26;;;;;;;8.82;7.55;;;;;;;11.90;100.00;98903.81;5534102;31;33860;-70
2022/09/29 02:51:48;;;;;;;12.05;8.27;;;;;;;11.92;100.00;98914.19;5589685;31;34129;-69
2022/09/29 02:55:06;;;;;;;13.48;8.27;;;;;;;12.05;100.00;98916.81;5589696;31;34165;-70
2022/09/29 02:58:43;;;;;;;16.23;8.95;;;;;;;12.13;100.00;98920.03;5575912;31;33060;-71
2022/09/29 03:01:54;;;;;;;13.62;8.85;;;;;;;12.02;100.00;98915.38;5589787;31;34740;-71
2022/09/29 03:05:12;;;;;;;16.48;9.40;;;;;;;12.00;100.00;98914.78;5590012;31;34539;-72
2022/09/29 03:08:19;;;;;;;14.25;8.98;;;;;;;12.01;100.00;98911.09;5589675;31;34709;-73
2022/09/29 03:11:25;;;;;;;17.08;9.30;;;;;;;11.99;100.00;98923.78;5589510;31;34287;-74
2022/09/29 03:14:34;;;;;;;20.77;10.15;;;;;;;12.08;100.00;98932.31;5589727;31;34028;-74
2022/09/29 03:17:45;;;;;;;15.48;9.48;;;;;;;12.01;100.00;98929.69;5575558;31;32844;-75
2022/09/29 03:20:54;;;;;;;20.15;10.40;;;;;;;12.01;100.00;98927.03;5576113;31;34105;-75
2022/09/29 03:24:01;;;;;;;17.20;10.48;;;;;;;12.01;100.00;98919.06;5589569;31;34710;-73
2022/09/29 03:27:08;;;;;;;17.55;10.38;;;;;;;12.01;100.00;98921.72;5588813;31;34842;-75
2022/09/29 03:30:16;;;;;;;19.37;10.68;;;;;;;12.03;100.00;98922.31;5589460;31;34573;-76
2022/09/29 03:33:24;;;;;;;19.17;10.60;;;;;;;12.05;100.00;98924.78;5589320;31;34144;-76
2022/09/29 03:36:30;;;;;;;14.20;10.02;;;;;;;12.03;100.00;98926.81;5589771;31;33979;-76
2022/09/29 03:39:38;;;;;;;18.27;10.43;;;;;;;12.02;100.00;98920.69;5590064;31;33883;-76
2022/09/29 03:42:46;;;;;;;21.65;11.50;;;;;;;12.04;100.00;98912.50;5589732;31;34669;-77
2022/09/29 03:45:53;;;;;;;18.80;10.88;;;;;;;12.04;100.00;98910.69;5575812;31;33104;-76
2022/09/29 03:49:00;;;;;;;18.73;10.30;;;;;;;12.08;100.00;98905.75;5589188;31;33923;-77
2022/09/29 03:52:06;;;;;;;18.30;11.73;;;;;;;12.07;100.00;98907.59;5589168;31;34547;-77
2022/09/29 03:55:14;;;;;;;23.62;11.63;;;;;;;12.04;100.00;98894.72;5589694;31;34358;-78
2022/09/29 03:58:23;;;;;;;23.55;11.73;;;;;;;12.09;100.00;98905.53;5589737;31;34763;-80
2022/09/29 04:01:31;;;;;;;20.85;10.93;;;;;;;12.08;100.00;98893.28;5589514;31;33882;-80
2022/09/29 04:04:40;;;;;;;19.08;10.82;;;;;;;12.09;100.00;98894.09;5589320;31;35223;-78
2022/09/29 04:07:47;;;;;;;20.55;11.32;;;;;;;12.05;100.00;98893.69;5575990;31;34688;-76
2022/09/29 04:10:55;;;;;;;19.98;11.07;;;;;;;12.05;100.00;98879.59;5575480;31;34404;-76
2022/09/29 04:14:03;;;;;;;19.02;10.80;;;;;;;12.02;100.00;98886.13;5575355;31;33913;-77
2022/09/29 04:17:12;;;;;;;18.90;11.40;;;;;;;11.97;100.00;98891.28;5588644;31;34096;-76
2022/09/29 04:20:17;;;;;;;19.92;11.43;;;;;;;11.98;100.00;98890.25;5588673;31;34725;-75
2022/09/29 04:23:25;;;;;;;20.62;11.68;;;;;;;11.99;100.00;98885.75;5588531;31;33974;-76
2022/09/29 04:26:32;;;;;;;18.60;11.60;;;;;;;11.98;100.00;98882.28;5588390;31;34722;-76
2022/09/29 04:29:40;;;;;;;20.65;11.05;;;;;;;12.05;100.00;98890.22;5588141;31;34101;-77
2022/09/29 04:32:46;;;;;;;20.92;11.70;;;;;;;12.01;100.00;98881.03;5588287;31;34760;-77
2022/09/29 04:35:53;;;;;;;21.92;12.32;;;;;;;12.00;100.00;98876.75;5590595;31;34637;-79
2022/09/29 04:39:00;;;;;;;19.42;12.00;;;;;;;11.97;100.00;98880.66;5590680;31;33950;-77
2022/09/29 04:42:09;;;;;;;21.35;12.40;;;;;;;12.01;100.00;98878.38;5591204;31;34621;-77
2022/09/29 04:45:15;;;;;;;18.50;11.77;;;;;;;12.01;100.00;98881.84;5590703;31;34014;-75
2022/09/29 04:48:21;;;;;;;19.67;11.88;;;;;;;12.06;100.00;98884.69;5590784;31;33955;-76
2022/09/29 04:51:27;;;;;;;20.45;12.20;;;;;;;12.05;100.00;98887.56;5590729;31;33978;-76
2022/09/29 04:54:34;;;;;;;22.83;12.05;;;;;;;12.20;100.00;98885.41;5577173;31;32325;-76
2022/09/29 04:57:45;;;;;;;24.48;12.73;;;;;;;12.13;100.00;98887.31;5576999;31;33666;-75
2022/09/29 05:00:53;;;;;;;20.20;12.68;;;;;;;12.10;100.00;98893.06;5577646;31;34085;-77
2022/09/29 05:04:00;;;;;;;27.13;12.85;;;;;;;12.17;100.00;98891.97;5590680;31;34056;-77
2022/09/29 05:07:07;;;;;;;23.92;13.20;;;;;;;12.17;100.00;98897.31;5590801;31;32535;-76
2022/09/29 05:10:12;;;;;;;22.55;12.98;;;;;;;12.18;100.00;98890.16;5590443;31;33927;-75
2022/09/29 05:13:18;;;;;;;21.85;12.82;;;;;;;12.17;100.00;98894.63;5590659;31;34289;-76
2022/09/29 05:16:26;;;;;;;19.85;12.50;;;;;;;12.25;100.00;98890.13;5590580;31;34640;-77
2022/09/29 05:19:34;;;;;;;22.35;13.15;;;;;;;12.24;100.00;98901.78;5590517;31;34747;-75
2022/09/29 05:22:48;;;;;;;23.90;13.50;;;;;;;12.21;100.00;98905.66;5576356;31;32544;-75
2022/09/29 05:25:52;;;;;;;21.80;13.07;;;;;;;12.28;100.00;98892.31;5576341;31;34438;-77
2022/09/29 05:28:57;;;;;;;21.55;12.57;;;;;;;12.35;100.00;98896.56;5589905;31;34082;-75
2022/09/29 05:32:05;;;;;;;25.27;12.77;;;;;;;12.36;100.00;98903.50;5590314;31;34409;-75
2022/09/29 05:35:12;;;;;;;20.08;13.32;;;;;;;12.30;100.00;98898.22;5590291;31;34090;-74
2022/09/29 05:38:17;;;;;;;23.45;14.25;;;;;;;12.39;100.00;98896.97;5575980;31;32358;-74
2022/09/29 05:41:22;;;;;;;24.65;13.32;;;;;;;12.35;100.00;98890.41;5590124;31;33962;-76
2022/09/29 05:44:27;;;;;;;22.15;13.68;;;;;;;12.28;100.00;98900.31;5590102;31;34072;-74
2022/09/29 05:47:31;;;;;;;23.45;14.87;;;;;;;12.42;100.00;98902.66;5589821;31;34552;-74
2022/09/29 05:50:42;;;;;;;29.25;15.52;;;;;;;12.36;100.00;98905.34;5589023;31;34050;-74
2022/09/29 05:53:47;;;;;;;23.45;14.87;;;;;;;12.35;100.00;98909.84;5589604;31;34302;-74
2022/09/29 05:56:53;;;;;;;23.38;14.85;;;;;;;12.30;100.00;98916.84;5589644;31;34331;-74
2022/09/29 05:59:57;;;;;;;22.48;14.70;;;;;;;12.41;100.00;98922.31;5589919;31;34670;-72
2022/09/29 06:03:01;;;;;;;24.85;15.10;;;;;;;12.35;100.00;98915.19;5589614;31;34478;-73
2022/09/29 06:06:15;;;;;;;24.23;15.73;;;;;;;12.25;100.00;98919.34;5589808;31;35212;-75
2022/09/29 06:09:19;;;;;;;24.67;15.95;;;;;;;12.19;100.00;98927.16;5590441;31;33878;-71
2022/09/29 06:12:23;;;;;;;29.63;15.30;;;;;;;12.16;100.00;98927.56;5590224;31;33924;-70
2022/09/29 06:15:28;;;;;;;26.85;16.05;;;;;;;12.14;100.00;98921.66;5575678;31;32787;-70
2022/09/29 06:18:35;;;;;;;22.08;15.48;;;;;;;12.07;100.00;98928.84;5589556;31;34026;-70
2022/09/29 06:21:39;;;;;;;22.80;15.75;;;;;;;12.09;100.00;98934.78;5589803;31;34102;-71
2022/09/29 06:24:43;;;;;;;21.90;14.55;;;;;;;12.14;100.00;98942.94;5575660;31;32415;-70
2022/09/29 06:27:47;;;;;;;19.75;14.95;;;;;;;12.17;100.00;98942.50;5589717;31;33837;-70
2022/09/29 06:30:57;;;;;;;26.37;16.12;;;;;;;12.14;100.00;98945.59;5589548;31;33934;-70
2022/09/29 06:34:03;;;;;;;24.50;16.62;;;;;;;12.11;100.00;98938.03;5589514;31;34612;-70
2022/09/29 06:40:31;;;;;;;15.82;11.32;;;;;;;12.19;100.00;98947.59;5589635;31;34741;-71
2022/09/29 06:43:35;;;;;;;12.15;8.82;;;;;;;12.22;100.00;98954.34;5589477;31;33959;-71
2022/09/29 06:46:40;;;;;;;8.20;6.40;;;;;;;12.06;100.00;98951.13;5562807;31;34872;-72
2022/09/29 06:49:49;;;;;;;7.97;5.90;;;;;;;11.96;100.00;98949.94;5589506;31;34583;-72
2022/09/29 06:53:11;;;;;;;8.25;5.97;;;;;;;11.88;100.00;98959.00;5589448;31;34743;-72
2022/09/29 06:56:18;;;;;;;9.68;4.00;;;;;;;11.85;100.00;98964.75;5589596;31;33996;-72
2022/09/29 06:59:23;;;;;;;3.12;2.55;;;;;;;11.80;100.00;98971.69;5589591;31;34568;-72
2022/09/29 07:02:28;;;;;;;3.97;3.15;;;;;;;11.75;100.00;98959.88;5588703;31;34049;-71
2022/09/29 07:05:31;;;;;;;6.90;2.33;;;;;;;11.74;100.00;98968.84;5575923;31;34392;-71
2022/09/29 07:08:37;;;;;;;5.57;2.70;;;;;;;11.70;100.00;98978.25;5575620;31;32293;-71
2022/09/29 07:11:45;;;;;;;3.67;2.28;;;;;;;11.67;100.00;98972.50;5589594;31;35123;-71
2022/09/29 07:14:50;;;;;;;6.25;2.20;;;;;;;11.73;100.00;98966.41;5589495;31;34020;-70
2022/09/29 07:17:53;;;;;;;4.80;2.20;;;;;;;11.98;100.00;98974.47;5575710;31;34279;-70
2022/09/29 07:20:56;;;;;;;3.10;1.67;;;;;;;12.20;100.00;98973.16;5589194;31;33954;-72
2022/09/29 07:24:00;;;;;;;1.70;1.40;;;;;;;12.07;100.00;98973.22;5589296;31;33967;-71
2022/09/29 07:27:06;;;;;;;2.75;1.40;;;;;;;11.96;100.00;98985.31;5589571;31;34665;-73
2022/09/29 07:30:10;;;;;;;1.65;1.40;;;;;;;12.04;100.00;98986.94;5589844;31;34015;-72
2022/09/29 07:33:15;;;;;;;2.28;1.40;;;;;;;12.07;100.00;98989.97;5589291;31;33936;-72
2022/09/29 07:36:21;;;;;;;2.05;1.50;;;;;;;12.09;100.00;98995.09;5575411;31;32934;-72
2022/09/29 07:39:26;;;;;;;2.15;1.80;;;;;;;11.91;100.00;98989.66;5589258;31;34561;-73
2022/09/29 07:42:29;;;;;;;4.65;2.20;;;;;;;11.88;100.00;98998.84;5589291;31;33867;-73
2022/09/29 07:45:34;;;;;;;4.68;1.95;;;;;;;12.12;100.00;99003.47;5589408;31;35198;-73
2022/09/29 07:48:38;;;;;;;5.60;2.10;;;;;;;12.52;100.00;99003.25;5562412;31;32439;-74
2022/09/29 07:51:42;;;;;;;3.37;1.50;;;;;;;13.22;100.00;99007.47;5588923;31;35216;-73
2022/09/29 07:54:48;;;;;;;3.50;1.50;;;;;;;12.94;100.00;99012.41;5575376;31;34145;-74
2022/09/29 07:57:52;;;;;;;3.55;1.80;;;;;;;13.21;100.00;99005.06;5589070;31;34487;-76
2022/09/29 08:00:56;;;;;;;2.35;1.70;;;;;;;13.45;100.00;99015.69;5562492;31;34539;-73
2022/09/29 08:04:01;;;;;;;2.47;1.50;;;;;;;13.86;100.00;99025.72;5588762;31;34413;-73
2022/09/29 08:07:05;;;;;;;2.20;1.67;;;;;;;14.08;100.00;99031.44;5574464;31;32993;-71
2022/09/29 08:10:09;;;;;;;2.03;1.80;;;;;;;13.26;100.00;99035.34;5588631;31;34680;-72
2022/09/29 08:13:19;;;;;;;2.08;1.77;;;;;;;12.87;100.00;99027.63;5590136;31;34020;-71
2022/09/29 08:16:23;;;;;;;2.97;2.03;;;;;;;13.18;100.00;99027.59;5576916;31;33259;-71
2022/09/29 08:19:27;;;;;;;2.37;1.90;;;;;;;13.22;100.00;99028.78;5591102;31;34341;-71
2022/09/29 08:22:30;;;;;;;2.30;1.98;;;;;;;13.59;100.00;99034.22;5577174;31;32528;-70
2022/09/29 08:25:35;;;;;;;4.15;2.15;;;;;;;13.24;100.00;99040.06;5591044;31;34354;-69
2022/09/29 08:28:40;;;;;;;4.03;2.30;;;;;;;13.68;100.00;99035.56;5591059;31;34184;-72
2022/09/29 08:31:44;;;;;;;2.50;1.95;;;;;;;13.79;100.00;99048.16;5590994;31;33850;-69
2022/09/29 08:34:48;;;;;;;2.35;1.85;;;;;;;14.25;100.00;99050.31;5590894;31;35260;-69
2022/09/29 08:37:54;;;;;;;4.40;1.90;;;;;;;13.80;100.00;99042.59;5590520;31;34110;-70
2022/09/29 08:41:03;;;;;;;2.72;2.05;;;;;;;13.53;100.00;99041.22;5577413;31;34245;-70
2022/09/29 08:44:29;;;;;;;2.83;2.10;;;;;;;13.70;100.00;99052.94;5590752;31;34517;-69
2022/09/29 08:47:47;;;;;;;2.35;2.00;;;;;;;13.92;100.00;99056.84;5576765;31;32773;-70
2022/09/29 08:50:51;;;;;;;;;;;;;;;14.10;100.00;99065.88;5591286;31;34011;-69
2022/09/29 08:54:01;;;;;;;2.50;1.67;;;;;;;13.83;100.00;99066.16;5576911;31;35131;-71
2022/09/29 08:57:14;;;;;;;4.28;1.70;;;;;;;14.10;100.00;99065.88;5577024;31;32334;-71
2022/09/29 09:00:19;;;;;;;2.05;1.60;;;;;;;14.09;100.00;99062.38;5590983;31;34139;-69
2022/09/29 09:03:55;;;;;;;7.22;1.55;;;;;;;14.31;100.00;99057.41;5576563;31;32461;-71
2022/09/29 09:07:13;;;;;;;2.87;1.60;;;;;;;14.34;100.00;99064.97;5590320;31;33945;-69
2022/09/29 09:10:46;;;;;;;1.08;0.95;;;;;;;14.69;100.00;99065.97;5590409;31;34161;-70
2022/09/29 09:14:12;;;;;;;2.12;1.10;;;;;;;14.95;100.00;99072.81;5576047;31;33365;-69
2022/09/29 09:17:52;;;;;;;1.30;1.00;;;;;;;15.16;100.00;99077.63;5590268;31;34139;-69
2022/09/29 09:21:05;;;;;;;1.65;1.05;;;;;;;15.87;100.00;99081.22;5590437;31;34054;-70
2022/09/29 09:24:33;;;;;;;1.70;0.82;;;;;;;15.66;100.00;99074.59;5589642;31;34018;-70
2022/09/29 09:27:42;;;;;;;0.80;0.70;;;;;;;15.15;100.00;99070.66;5590304;31;34201;-69
2022/09/29 09:30:54;;;;;;;1.00;0.77;;;;;;;14.80;100.00;99072.41;5590252;31;33883;-70
2022/09/29 09:34:06;;;;;;;1.27;0.80;;;;;;;14.72;100.00;99073.53;5590350;31;34175;-71
2022/09/29 09:37:20;;;;;;;2.60;0.80;;;;;;;14.74;100.00;99073.31;5575998;31;33163;-68
2022/09/29 09:40:29;;;;;;;1.10;0.70;;;;;;;15.33;100.00;99091.16;5590541;31;35150;-69
2022/09/29 09:43:41;;;;;;;0.60;0.55;;;;;;;15.90;100.00;99091.44;5564068;31;34341;-70
2022/09/29 09:47:52;;;;;;;0.80;0.73;;;;;;;15.59;100.00;99098.75;5576281;31;34173;-70
2022/09/29 09:50:59;;;;;;;0.98;0.85;;;;;;;15.62;100.00;99100.16;5478821;32;34206;-70
2022/09/29 09:54:13;;;;;;;1.27;0.75;;;;;;;16.13;100.00;99096.75;5478848;32;32745;-71
2022/09/29 09:57:54;;;;;;;1.20;0.73;;;;;;;15.95;100.00;99099.59;5491364;32;34688;-70
2022/09/29 10:01:00;;;;;;;;;;;;;;;16.63;100.00;99113.09;5466394;32;33662;-70
2022/09/29 10:04:05;;;;;;;4.32;0.77;;;;;;;16.31;100.00;99101.19;5478478;32;34206;-68
2022/09/29 10:07:13;;;;;;;1.10;0.70;;;;;;;15.88;100.00;99098.88;5491553;32;33852;-71
2022/09/29 10:10:41;;;;;;;5.37;0.93;;;;;;;15.53;100.00;99094.34;5481246;32;34712;-69
2022/09/29 10:14:08;;;;;;;0.70;0.62;;;;;;;15.56;100.00;99085.84;5491343;32;34043;-71
2022/09/29 10:17:15;;;;;;;5.30;0.98;;;;;;;15.34;100.00;99078.59;5491170;32;35250;-70
2022/09/29 10:20:33;;;;;;;0.70;0.57;;;;;;;15.29;100.00;99078.47;5503978;31;34609;-70
2022/09/29 10:23:37;;;;;;;1.42;0.80;;;;;;;15.48;100.00;99096.88;5589821;31;34180;-69
2022/09/29 10:26:43;;;;;;;1.30;0.75;;;;;;;15.53;100.00;99096.22;5589758;31;34578;-69
2022/09/29 10:29:51;;;;;;;0.90;0.73;;;;;;;15.75;100.00;99094.59;5589663;31;34677;-70
2022/09/29 10:32:59;;;;;;;1.77;0.90;;;;;;;16.58;100.00;99094.25;5589651;31;34015;-70
2022/09/29 10:36:08;;;;;;;1.12;0.60;;;;;;;16.98;100.00;99086.19;5588443;31;34048;-69
2022/09/29 10:39:39;;;;;;;3.05;0.65;;;;;;;17.72;93.21;99090.41;5589290;31;34117;-70
2022/09/29 10:42:49;;;;;;;1.40;0.70;;;;;;;18.57;90.36;99100.72;5575252;31;32503;-71
2022/09/29 10:45:57;;;;;;;1.08;0.70;;;;;;;19.68;82.37;99102.91;5576012;31;33144;-70
2022/09/29 10:49:15;;;;;;;1.12;0.73;;;;;;;19.93;80.54;99090.44;5575667;31;32805;-70
2022/09/29 10:52:26;;;;;;;1.60;0.80;;;;;;;19.53;80.42;99101.72;5589605;31;33835;-70
2022/09/29 10:55:32;;;;;;;1.12;0.60;;;;;;;19.68;82.17;99101.03;5589611;31;33815;-70
2022/09/29 10:58:41;;;;;;;2.28;1.00;;;;;;;20.39;77.02;99104.97;5589682;31;33937;-69
2022/09/29 11:02:01;;;;;;;1.27;0.85;;;;;;;20.88;73.50;99107.31;5577555;31;33936;-70
2022/09/29 11:05:16;;;;;;;2.72;0.85;;;;;;;20.31;79.40;99110.06;5589596;31;34389;-69
2022/09/29 11:08:24;;;;;;;3.62;1.12;;;;;;;20.91;77.25;99097.91;5589725;31;34067;-69
2022/09/29 11:11:29;;;;;;;1.87;1.10;;;;;;;21.02;74.01;99104.91;5589494;31;34066;-69
2022/09/29 11:14:35;;;;;;;4.05;1.10;;;;;;;20.87;74.00;99105.69;5589061;31;34667;-70
2022/09/29 11:17:38;;;;;;;2.10;1.10;;;;;;;20.79;72.61;99104.34;5575250;31;32584;-70
2022/09/29 11:20:41;;;;;;;3.05;1.20;;;;;;;21.44;74.35;99102.88;5589249;31;34251;-69
2022/09/29 11:24:02;;;;;;;2.40;1.10;;;;;;;21.96;68.39;99096.38;5574990;31;34401;-71
2022/09/29 11:27:18;;;;;;;2.00;1.10;;;;;;;22.60;67.41;99101.03;5589357;31;34843;-70
2022/09/29 11:30:32;;;;;;;2.05;1.10;;;;;;;23.74;61.93;99102.50;5589159;31;34847;-70
2022/09/29 11:33:41;;;;;;;1.83;0.90;;;;;;;24.02;58.41;99098.97;5575354;31;32718;-69
2022/09/29 11:37:05;;;;;;;1.35;0.60;;;;;;;23.67;57.76;99102.81;5589267;31;34190;-70
2022/09/29 11:40:28;;;;;;;0.80;0.50;;;;;;;23.01;56.88;99104.38;5574953;31;32944;-71
2022/09/29 11:43:38;;;;;;;2.10;0.60;;;;;;;22.03;59.45;99105.78;5588799;31;35172;-69
2022/09/29 11:47:01;;;;;;;1.12;0.60;;;;;;;21.11;64.41;99097.91;5574579;31;32628;-70
2022/09/29 11:50:35;;;;;;;2.05;0.50;;;;;;;20.78;64.16;99099.19;5588899;31;33909;-69
2022/09/29 11:54:12;;;;;;;2.50;0.60;;;;;;;19.88;65.95;99111.94;5587214;31;34304;-69
2022/09/29 11:57:21;;;;;;;2.40;0.52;;;;;;;19.28;70.36;99106.03;5588985;31;34665;-69
2022/09/29 12:00:46;;;;;;;1.83;0.40;;;;;;;19.45;69.20;99104.88;5589120;31;34134;-69
2022/09/29 12:03:55;;;;;;;3.20;0.60;;;;;;;19.23;69.46;99108.66;5561823;31;32541;-66
2022/09/29 12:07:35;;;;;;;0.75;0.47;;;;;;;19.06;69.21;99122.22;5588709;31;34341;-69
2022/09/29 12:10:55;;;;;;;2.37;0.50;;;;;;;18.60;71.30;99124.37;5574400;31;34049;-70
2022/09/29 12:14:20;;;;;;;0.93;0.50;;;;;;;18.57;72.25;99124.91;5574279;31;32965;-68
2022/09/29 12:17:28;;;;;;;1.00;0.60;;;;;;;18.28;72.53;99123.41;5574396;31;32884;-68
2022/09/29 12:20:36;;;;;;;1.02;0.50;;;;;;;18.29;72.90;99130.41;5574504;31;32470;-68
2022/09/29 12:23:43;;;;;;;1.95;0.60;;;;;;;18.34;73.01;99129.66;5588205;31;34314;-66
2022/09/29 12:26:49;;;;;;;1.05;0.50;;;;;;;17.98;74.82;99125.66;5573879;31;33002;-69
2022/09/29 12:30:28;;;;;;;0.93;0.47;;;;;;;17.71;77.10;99131.72;5574319;31;32488;-66
2022/09/29 12:34:04;;;;;;;0.90;0.45;;;;;;;17.48;82.53;99125.63;5574233;31;32333;-68
2022/09/29 12:37:29;;;;;;;2.80;0.50;;;;;;;17.20;85.40;99126.50;5574512;31;32630;-70
2022/09/29 12:41:09;;;;;;;0.98;0.40;;;;;;;17.30;81.51;99127.50;5580244;31;256880;-71
2022/09/29 12:44:19;;;;;;;0.80;0.40;;;;;;;17.18;89.33;99131.31;5585483;31;33908;-72
2022/09/29 12:47:49;;;;;;;0.80;0.50;;;;;;;16.62;91.22;99132.91;5588193;31;34370;-72
2022/09/29 12:51:09;;;;;;;1.12;0.65;;;;;;;16.41;96.80;99118.25;5588374;31;33971;-72
2022/09/29 12:54:23;;;;;;;1.50;0.60;;;;;;;16.29;96.18;99120.12;5574143;31;32642;-72
2022/09/29 12:57:38;;;;;;;2.30;0.70;;;;;;;16.48;100.00;99136.84;5587884;31;34243;-72
2022/09/29 13:00:48;;;;;;;0.90;0.70;;;;;;;16.48;100.00;99151.06;5589956;31;34115;-72
2022/09/29 13:04:12;;;;;;;2.65;0.70;;;;;;;16.14;98.06;99156.44;5576496;31;32461;-71
2022/09/29 13:07:38;;;;;;;0.95;0.60;;;;;;;15.90;100.00;99156.44;5590554;31;34032;-71
2022/09/29 13:10:51;;;;;;;2.13;0.80;;;;;;;15.91;100.00;99158.09;5576458;31;32619;-71
2022/09/29 13:14:09;;;;;;;1.20;0.80;;;;;;;16.21;96.84;99152.63;5590402;31;34351;-71
2022/09/29 13:17:17;;;;;;;0.77;0.57;;;;;;;16.47;99.53;99151.28;5576379;31;32736;-70
2022/09/29 13:20:43;;;;;;;2.90;0.90;;;;;;;16.75;98.52;99142.53;5576613;31;32365;-70
2022/09/29 13:24:06;;;;;;;1.95;0.73;;;;;;;17.15;94.12;99148.66;5576547;31;33551;-70
2022/09/29 13:27:36;;;;;;;2.28;0.80;;;;;;;18.07;85.46;99154.50;5590346;31;33908;-70
2022/09/29 13:30:39;;;;;;;2.50;0.93;;;;;;;18.42;84.75;99154.22;5588679;31;34144;-71
2022/09/29 13:33:48;;;;;;;1.30;0.80;;;;;;;19.13;80.62;99157.78;5575862;31;34106;-69
2022/09/29 13:36:52;;;;;;;0.87;0.50;;;;;;;19.67;79.46;99147.81;5576331;31;32802;-69
2022/09/29 13:40:04;;;;;;;1.00;0.65;;;;;;;19.59;75.64;99150.19;5575723;31;32455;-70
2022/09/29 13:43:39;;;;;;;0.80;0.50;;;;;;;19.85;71.19;99147.44;5589385;31;34062;-70
2022/09/29 13:46:43;;;;;;;0.50;0.40;;;;;;;20.23;69.76;99151.75;5589810;31;33991;-69
2022/09/29 13:49:47;;;;;;;0.90;0.73;;;;;;;19.94;68.37;99153.16;5589511;31;35290;-69
2022/09/29 13:52:51;;;;;;;1.00;0.60;;;;;;;19.60;73.78;99160.69;5562905;31;33002;-69
2022/09/29 13:56:02;;;;;;;1.35;0.80;;;;;;;19.12;75.92;99155.34;5575302;31;33327;-69
2022/09/29 13:59:14;;;;;;;0.90;0.68;;;;;;;18.54;78.59;99162.19;5589610;31;34348;-69
2022/09/29 14:02:50;;;;;;;1.42;0.65;;;;;;;17.96;84.97;99163.47;5589164;31;34276;-69
2022/09/29 14:06:02;;;;;;;1.17;0.80;;;;;;;17.70;89.72;99166.81;5589726;31;34205;-69
2022/09/29 14:09:33;;;;;;;3.22;0.70;;;;;;;17.17;92.17;99167.19;5589530;31;34279;-69
2022/09/29 14:12:39;;;;;;;1.37;0.73;;;;;;;17.01;87.91;99155.37;5589267;31;34239;-68
2022/09/29 14:15:50;;;;;;;1.75;0.85;;;;;;;17.08;90.25;99172.13;5575685;31;33216;-68
2022/09/29 14:19:13;;;;;;;2.92;1.05;;;;;;;17.04;90.43;99168.28;5589313;31;34926;-69
2022/09/29 14:22:35;;;;;;;1.90;0.95;;;;;;;16.99;87.96;99170.06;5589525;31;34334;-68
2022/09/29 14:25:39;;;;;;;1.77;0.85;;;;;;;16.78;96.71;99169.66;5589103;31;34420;-69
2022/09/29 14:28:44;;;;;;;3.12;1.00;;;;;;;16.99;98.26;99167.38;5589205;31;34956;-68
2022/09/29 14:31:54;;;;;;;1.27;0.70;;;;;;;16.81;95.66;99173.72;5589140;31;35519;-68
2022/09/29 14:34:59;;;;;;;2.10;0.90;;;;;;;16.89;100.00;99179.50;5575051;31;34628;-68
2022/09/29 14:38:03;;;;;;;2.92;1.00;;;;;;;16.71;100.00;99179.69;5575087;31;32677;-68
2022/09/29 14:41:09;;;;;;;3.90;1.30;;;;;;;16.73;94.64;99179.44;5588835;31;34895;-68
2022/09/29 14:44:17;;;;;;;5.47;1.33;;;;;;;16.72;99.75;99193.87;5575393;31;33919;-68
2022/09/29 14:55:18;;;;;;;3.45;1.75;;;;;;;17.24;95.39;99203.50;5589129;31;34993;-67
2022/09/29 14:58:58;;;;;;;1.10;0.70;;;;;;;17.36;89.89;99209.66;5589391;31;34374;-68
2022/09/29 15:02:18;;;;;;;1.65;0.80;;;;;;;16.62;89.65;99218.59;5575009;31;33849;-68
2022/09/29 15:05:32;;;;;;;3.10;0.90;;;;;;;16.60;92.29;99212.66;5574174;31;34461;-69